Time;durP1;ratioP1;P1;durP2;ratioP2;P2;SDS_P1;SDS_P2;PMS_P1;PMS_P2;Temp;Humidity;BMP_temperature;BMP_pressure;BME280_temperature;BME280_humidity;BME280_pressure;Samples;Min_cycle;Max_cycle;Signal;HPM_P1;HPM_P2
2022/10/26 00:01:06;;;;;;;7.73;4.67;;;8.40;99.90;;;;;;8417191;28;20195;-71
2022/10/26 00:05:07;;;;;;;7.00;5.37;;;8.30;99.90;;;;;;8390402;28;20200;-72
2022/10/26 00:09:07;;;;;;;6.37;4.60;;;8.20;99.90;;;;;;8418245;28;20206;-71
2022/10/26 00:13:11;;;;;;;7.80;5.33;;;8.20;99.90;;;;;;8417861;28;20185;-69
2022/10/26 00:17:12;;;;;;;6.23;4.83;;;8.10;99.90;;;;;;8415332;28;20395;-71
2022/10/26 00:21:12;;;;;;;6.73;4.87;;;8.10;99.90;;;;;;8396852;28;20184;-72
2022/10/26 00:25:13;;;;;;;7.13;5.03;;;8.00;99.90;;;;;;8417382;28;20196;-71
2022/10/26 00:29:14;;;;;;;8.47;6.03;;;7.90;99.90;;;;;;8398638;28;20184;-71
2022/10/26 00:33:15;;;;;;;7.20;5.03;;;7.90;99.90;;;;;;8398583;28;21296;-71
2022/10/26 00:37:16;;;;;;;6.03;5.03;;;7.90;99.90;;;;;;8401190;28;20161;-71
2022/10/26 00:41:18;;;;;;;6.97;5.37;;;7.90;99.90;;;;;;8403514;28;20180;-70
2022/10/26 00:45:21;;;;;;;6.00;5.20;;;7.90;99.90;;;;;;8421216;28;20564;-71
2022/10/26 00:49:29;;;;;;;8.63;6.80;;;7.90;99.90;;;;;;8401611;28;20238;-70
2022/10/26 00:53:32;;;;;;;10.70;6.93;;;7.90;99.90;;;;;;8405908;28;20215;-70
2022/10/26 00:57:35;;;;;;;7.80;6.03;;;8.00;99.90;;;;;;8418738;28;20201;-69
2022/10/26 01:01:39;;;;;;;9.67;6.07;;;7.90;99.90;;;;;;8420351;28;20274;-70
2022/10/26 01:05:42;;;;;;;7.03;5.73;;;7.80;99.90;;;;;;8419732;28;20192;-69
2022/10/26 01:09:43;;;;;;;7.23;5.60;;;7.60;99.90;;;;;;8420870;28;20185;-70
2022/10/26 01:13:45;;;;;;;7.40;5.57;;;7.50;99.90;;;;;;8403516;28;20199;-70
2022/10/26 01:18:04;;;;;;;7.57;5.53;;;7.40;99.90;;;;;;8415131;28;20208;-69
2022/10/26 01:22:19;;;;;;;7.23;5.03;;;7.40;99.90;;;;;;8418704;28;20227;-70
2022/10/26 01:26:26;;;;;;;7.40;5.40;;;7.30;99.90;;;;;;8418445;28;20205;-69
2022/10/26 01:30:38;;;;;;;7.23;5.10;;;7.30;99.90;;;;;;8394537;28;20181;-70
2022/10/26 01:34:49;;;;;;;6.80;5.83;;;7.20;99.90;;;;;;8420532;28;20189;-70
2022/10/26 01:39:16;;;;;;;7.73;5.10;;;7.10;99.90;;;;;;8417451;28;20196;-69
2022/10/26 01:43:18;;;;;;;6.90;5.30;;;7.00;99.90;;;;;;8412513;28;20195;-69
2022/10/26 01:47:22;;;;;;;5.53;4.40;;;6.90;99.90;;;;;;8417943;28;20209;-69
2022/10/26 01:51:24;;;;;;;6.50;4.60;;;6.90;99.90;;;;;;8399855;28;20188;-70
2022/10/26 01:55:37;;;;;;;8.40;4.70;;;6.80;99.90;;;;;;8418559;28;20188;-69
2022/10/26 01:59:59;;;;;;;6.97;4.03;;;6.80;99.90;;;;;;8417835;28;20542;-70
2022/10/26 02:04:37;;;;;;;7.60;4.70;;;6.70;99.90;;;;;;8418141;28;20192;-70
2022/10/26 02:08:37;;;;;;;4.20;3.53;;;6.70;99.90;;;;;;8419589;28;20218;-69
2022/10/26 02:12:41;;;;;;;5.37;4.00;;;6.70;99.90;;;;;;8424277;28;20180;-70
2022/10/26 02:16:47;;;;;;;7.60;3.93;;;6.60;99.90;;;;;;8421727;28;20303;-70
2022/10/26 02:20:52;;;;;;;7.33;4.00;;;6.50;99.90;;;;;;8407901;28;20238;-70
2022/10/26 02:24:55;;;;;;;3.87;3.53;;;6.60;99.90;;;;;;8423953;28;20181;-69
2022/10/26 02:29:01;;;;;;;4.37;3.53;;;6.60;99.90;;;;;;8403675;28;20204;-69
2022/10/26 02:33:04;;;;;;;3.87;3.47;;;6.60;99.90;;;;;;8407438;28;20208;-70
2022/10/26 02:37:07;;;;;;;6.40;3.67;;;6.60;99.90;;;;;;8418369;28;20187;-70
2022/10/26 02:41:09;;;;;;;3.30;2.90;;;6.60;99.90;;;;;;8400678;28;20200;-70
2022/10/26 02:45:16;;;;;;;3.53;3.23;;;6.50;99.90;;;;;;8402199;28;20260;-70
2022/10/26 02:49:17;;;;;;;6.00;3.10;;;6.40;99.90;;;;;;8417057;28;20268;-70
2022/10/26 02:53:48;;;;;;;5.80;3.10;;;6.20;99.90;;;;;;8419507;28;20176;-70
2022/10/26 02:57:55;;;;;;;7.60;4.00;;;6.10;99.90;;;;;;8405154;28;20291;-70
2022/10/26 03:01:57;;;;;;;8.70;5.63;;;6.10;99.90;;;;;;8396210;28;20197;-70
2022/10/26 03:05:57;;;;;;;10.83;5.67;;;6.00;99.90;;;;;;8405007;28;20501;-69
2022/10/26 03:09:58;;;;;;;11.00;5.73;;;5.90;99.90;;;;;;8422573;28;20181;-70
2022/10/26 03:13:59;;;;;;;9.60;5.10;;;5.80;99.90;;;;;;8403386;28;20283;-69
2022/10/26 03:18:00;;;;;;;6.63;4.53;;;5.70;99.90;;;;;;8399217;28;20188;-70
2022/10/26 03:22:01;;;;;;;6.67;3.90;;;5.50;99.90;;;;;;8422988;28;20234;-70
2022/10/26 03:26:02;;;;;;;8.83;4.97;;;5.50;99.90;;;;;;8422344;28;20212;-69
2022/10/26 03:30:04;;;;;;;8.17;4.03;;;5.40;99.90;;;;;;8402822;28;20238;-70
2022/10/26 03:34:04;;;;;;;5.87;3.83;;;5.30;99.90;;;;;;8403847;28;20342;-70
2022/10/26 03:38:05;;;;;;;5.40;3.60;;;5.20;99.90;;;;;;8403950;28;20180;-70
2022/10/26 03:42:06;;;;;;;5.70;3.50;;;5.20;99.90;;;;;;8426043;28;20185;-70
2022/10/26 03:46:07;;;;;;;4.50;2.97;;;5.10;99.90;;;;;;8425321;28;20239;-69
2022/10/26 03:50:08;;;;;;;4.53;3.17;;;5.00;99.90;;;;;;8407306;28;20211;-69
2022/10/26 03:54:09;;;;;;;5.33;3.00;;;5.00;99.90;;;;;;8420712;28;20177;-68
2022/10/26 03:58:10;;;;;;;4.47;2.67;;;4.90;99.90;;;;;;8424228;28;20215;-69
2022/10/26 04:02:11;;;;;;;4.97;3.30;;;4.80;99.90;;;;;;8407907;28;20249;-69
2022/10/26 04:06:12;;;;;;;4.27;2.83;;;4.80;99.90;;;;;;8402094;28;20212;-72
2022/10/26 04:10:12;;;;;;;4.10;2.80;;;4.90;99.90;;;;;;8406832;28;20187;-69
2022/10/26 04:14:13;;;;;;;5.37;3.57;;;4.90;99.90;;;;;;8406990;28;20181;-69
2022/10/26 04:18:14;;;;;;;4.17;2.80;;;5.00;99.90;;;;;;8424369;28;20504;-69
2022/10/26 04:22:15;;;;;;;3.53;3.03;;;5.00;99.90;;;;;;8405954;28;20184;-68
2022/10/26 04:26:16;;;;;;;4.90;3.60;;;5.00;99.90;;;;;;8406248;28;20200;-70
2022/10/26 04:30:17;;;;;;;4.80;3.43;;;5.00;99.90;;;;;;8405096;28;20226;-70
2022/10/26 04:34:17;;;;;;;4.50;3.37;;;5.00;99.90;;;;;;8407805;28;20180;-70
2022/10/26 04:38:18;;;;;;;5.47;3.50;;;5.00;99.90;;;;;;8423253;28;20468;-69
2022/10/26 04:42:19;;;;;;;5.33;3.53;;;5.00;99.90;;;;;;8407549;28;20195;-68
2022/10/26 04:46:20;;;;;;;5.97;4.37;;;5.00;99.90;;;;;;8424786;28;20315;-69
2022/10/26 04:50:20;;;;;;;8.53;5.03;;;5.10;99.90;;;;;;8421150;28;20184;-69
2022/10/26 04:54:21;;;;;;;5.77;4.23;;;5.10;99.90;;;;;;8423129;28;20449;-69
2022/10/26 04:58:22;;;;;;;4.30;3.90;;;5.00;99.90;;;;;;8400431;28;20204;-70
2022/10/26 05:02:23;;;;;;;5.47;4.07;;;4.90;99.90;;;;;;8408492;28;20281;-70
2022/10/26 05:06:24;;;;;;;6.93;4.47;;;4.80;99.90;;;;;;8404629;28;20216;-69
2022/10/26 05:10:25;;;;;;;18.77;9.03;;;4.70;99.90;;;;;;8426778;28;20270;-70
2022/10/26 05:14:26;;;;;;;28.03;12.20;;;4.70;99.90;;;;;;8420367;28;20157;-70
2022/10/26 05:18:27;;;;;;;38.30;18.03;;;4.60;99.90;;;;;;8420083;28;20172;-70
2022/10/26 05:22:28;;;;;;;56.37;24.23;;;4.60;99.90;;;;;;8420794;28;20184;-70
2022/10/26 05:26:29;;;;;;;54.33;24.33;;;4.60;99.90;;;;;;8403149;28;20203;-69
2022/10/26 05:30:30;;;;;;;38.23;18.33;;;4.50;99.90;;;;;;8422789;28;20172;-69
2022/10/26 05:34:31;;;;;;;29.67;15.23;;;4.40;99.90;;;;;;8402019;28;20214;-69
2022/10/26 05:38:32;;;;;;;25.47;13.73;;;4.40;99.90;;;;;;8418014;28;20184;-69
2022/10/26 05:42:33;;;;;;;29.23;13.77;;;4.30;99.90;;;;;;8401648;28;20240;-72
2022/10/26 05:46:34;;;;;;;21.33;9.47;;;4.20;99.90;;;;;;8419026;28;20196;-70
2022/10/26 05:50:35;;;;;;;27.07;14.77;;;4.20;99.90;;;;;;8406668;28;20176;-70
2022/10/26 05:54:36;;;;;;;18.07;12.63;;;4.10;99.90;;;;;;8396978;28;20180;-70
2022/10/26 05:58:40;;;;;;;15.23;9.63;;;4.10;99.90;;;;;;8417174;28;20233;-70
2022/10/26 06:03:00;;;;;;;17.03;10.13;;;4.00;99.90;;;;;;8417782;28;20401;-70
2022/10/26 06:07:01;;;;;;;18.60;8.20;;;4.00;99.90;;;;;;8414850;28;20200;-69
2022/10/26 06:11:02;;;;;;;15.10;8.03;;;4.10;99.90;;;;;;8420283;28;20173;-70
2022/10/26 06:15:04;;;;;;;13.20;7.93;;;4.10;99.90;;;;;;8403205;28;20187;-70
2022/10/26 06:19:31;;;;;;;17.77;9.93;;;4.20;99.90;;;;;;8418503;28;20169;-69
2022/10/26 06:23:49;;;;;;;17.67;9.60;;;4.20;99.90;;;;;;8416300;28;20216;-70
2022/10/26 06:27:56;;;;;;;19.03;10.67;;;4.30;99.90;;;;;;8417024;28;20257;-70
2022/10/26 06:31:57;;;;;;;20.53;11.77;;;4.40;99.90;;;;;;8407050;28;20186;-70
2022/10/26 06:36:16;;;;;;;19.50;10.80;;;4.50;99.90;;;;;;8421138;28;20180;-70
2022/10/26 06:40:18;;;;;;;18.87;11.10;;;4.70;99.90;;;;;;8407038;28;20180;-70
2022/10/26 06:44:22;;;;;;;19.47;11.27;;;4.80;99.90;;;;;;8399910;28;20181;-70
2022/10/26 06:48:27;;;;;;;20.93;12.37;;;4.90;99.90;;;;;;8402520;28;20216;-70
2022/10/26 06:52:27;;;;;;;25.83;13.33;;;5.00;99.90;;;;;;8421949;28;20187;-70
2022/10/26 06:56:28;;;;;;;23.77;12.30;;;5.20;99.90;;;;;;8403252;28;20184;-70
2022/10/26 07:00:30;;;;;;;24.63;16.03;;;5.30;99.90;;;;;;8402363;28;20184;-70
2022/10/26 07:04:31;;;;;;;36.87;19.90;;;5.40;99.90;;;;;;8403075;28;20240;-69
2022/10/26 07:08:32;;;;;;;37.90;22.27;;;5.60;99.90;;;;;;8399027;28;20223;-69
2022/10/26 07:12:36;;;;;;;41.17;20.83;;;5.80;99.90;;;;;;8417963;28;20189;-70
2022/10/26 07:16:36;;;;;;;37.60;22.20;;;6.10;99.90;;;;;;8424212;28;20190;-70
2022/10/26 07:20:39;;;;;;;36.57;20.77;;;6.40;99.90;;;;;;8401348;28;20195;-70
2022/10/26 07:24:40;;;;;;;46.97;25.40;;;6.60;99.90;;;;;;8396668;28;20180;-70
2022/10/26 07:28:41;;;;;;;51.47;29.47;;;6.90;99.90;;;;;;8399215;28;20231;-74
2022/10/26 07:32:42;;;;;;;55.70;30.30;;;7.10;99.90;;;;;;8424214;28;20184;-70
2022/10/26 07:36:43;;;;;;;60.57;35.70;;;7.30;99.90;;;;;;8406086;28;20180;-70
2022/10/26 07:40:44;;;;;;;57.87;34.37;;;7.50;99.90;;;;;;8403069;28;20182;-70
2022/10/26 07:44:45;;;;;;;49.47;31.53;;;7.80;99.90;;;;;;8409339;28;20248;-71
2022/10/26 07:48:45;;;;;;;51.70;29.63;;;8.20;99.90;;;;;;8407463;28;20211;-72
2022/10/26 07:52:46;;;;;;;33.57;21.37;;;8.60;99.90;;;;;;8412048;28;20271;-70
2022/10/26 07:56:50;;;;;;;23.07;15.60;;;9.00;99.90;;;;;;8427203;28;20202;-71
2022/10/26 08:00:52;;;;;;;20.93;15.30;;;9.40;99.90;;;;;;8408641;28;20186;-71
2022/10/26 08:04:53;;;;;;;18.07;12.27;;;9.80;99.90;;;;;;8431634;28;20283;-71
2022/10/26 08:08:54;;;;;;;18.73;10.37;;;10.10;99.90;;;;;;8415212;28;20202;-72
2022/10/26 08:12:54;;;;;;;17.20;12.13;;;10.40;99.90;;;;;;8419617;28;20278;-74
2022/10/26 08:16:58;;;;;;;9.43;6.00;;;10.70;99.90;;;;;;8435814;28;20188;-71
2022/10/26 08:21:08;;;;;;;6.30;4.53;;;10.90;99.90;;;;;;8415102;28;20265;-70
2022/10/26 08:25:09;;;;;;;7.80;4.63;;;11.20;99.90;;;;;;8419493;28;20186;-71
2022/10/26 08:29:10;;;;;;;4.90;4.07;;;11.50;99.90;;;;;;8433850;28;20215;-71
2022/10/26 08:33:11;;;;;;;6.83;4.17;;;11.70;99.90;;;;;;8414763;28;20177;-72
2022/10/26 08:37:11;;;;;;;10.40;3.70;;;12.00;99.90;;;;;;8433462;28;20188;-74
2022/10/26 08:41:13;;;;;;;4.23;3.70;;;12.20;99.90;;;;;;8415171;28;20188;-70
2022/10/26 08:45:25;;;;;;;3.23;2.33;;;12.40;99.90;;;;;;8411648;28;20184;-70
2022/10/26 08:49:42;;;;;;;5.80;2.90;;;12.70;99.90;;;;;;8415234;28;20295;-70
2022/10/26 08:54:13;;;;;;;5.13;2.87;;;12.90;99.90;;;;;;8431095;28;20184;-70
2022/10/26 08:58:16;;;;;;;9.07;3.07;;;13.00;99.90;;;;;;8411261;28;20220;-73
2022/10/26 09:02:17;;;;;;;3.83;2.90;;;13.20;99.90;;;;;;8431227;28;20196;-72
2022/10/26 09:06:30;;;;;;;4.53;2.50;;;13.50;99.90;;;;;;8428495;28;20208;-70
2022/10/26 09:10:38;;;;;;;4.67;2.50;;;13.70;99.90;;;;;;8420474;28;20318;-72
2022/10/26 09:14:47;;;;;;;5.17;2.20;;;13.90;99.90;;;;;;8419734;28;20180;-72
2022/10/26 09:19:20;;;;;;;4.03;2.13;;;14.20;99.90;;;;;;8396184;28;20185;-71
2022/10/26 09:23:29;;;;;;;5.77;2.30;;;14.40;99.90;;;;;;8400973;28;20652;-72
2022/10/26 09:27:38;;;;;;;3.80;2.10;;;14.70;99.90;;;;;;8400418;28;20216;-72
2022/10/26 09:31:41;;;;;;;5.73;2.10;;;14.90;99.90;;;;;;8398275;28;20181;-72
2022/10/26 09:36:22;;;;;;;6.53;2.00;;;15.10;99.90;;;;;;8418664;28;20279;-72
2022/10/26 09:40:41;;;;;;;2.77;1.90;;;15.20;99.90;;;;;;8388345;28;20199;-73
2022/10/26 09:44:49;;;;;;;6.10;2.70;;;15.40;1.00;;;;;;8403173;28;20189;-73
2022/10/26 09:48:54;;;;;;;6.57;2.53;;;15.60;1.00;;;;;;8404063;28;20293;-75
2022/10/26 09:52:55;;;;;;;3.10;2.00;;;15.80;99.90;;;;;;8415082;28;20172;-71
2022/10/26 09:57:01;;;;;;;2.77;1.80;;;15.90;1.00;;;;;;8417071;28;20262;-72
2022/10/26 10:01:01;;;;;;;4.07;1.60;;;16.00;1.00;;;;;;8394222;28;20173;-72
2022/10/26 10:05:21;;;;;;;2.57;1.37;;;16.10;1.00;;;;;;8402279;28;20245;-72
2022/10/26 10:09:23;;;;;;;3.30;1.50;;;16.30;99.90;;;;;;8421016;28;20360;-73
2022/10/26 10:13:30;;;;;;;2.10;1.33;;;16.40;1.00;;;;;;8420092;28;20212;-71
2022/10/26 10:17:32;;;;;;;2.63;1.20;;;16.60;99.90;;;;;;8401468;28;20184;-73
2022/10/26 10:21:38;;;;;;;1.90;1.17;;;16.70;99.90;;;;;;8402607;28;20184;-73
2022/10/26 10:25:39;;;;;;;1.80;1.17;;;16.80;99.90;;;;;;8418537;28;20188;-72
2022/10/26 10:29:42;;;;;;;2.23;1.27;;;16.90;99.90;;;;;;8400431;28;20611;-71
2022/10/26 10:33:44;;;;;;;1.77;1.00;;;17.00;33.80;;;;;;8400466;28;20172;-72
2022/10/26 10:37:45;;;;;;;2.67;1.40;;;17.20;26.80;;;;;;8419106;28;20180;-73
2022/10/26 10:41:46;;;;;;;1.60;0.90;;;17.20;4.90;;;;;;8397989;28;20462;-73
2022/10/26 10:45:50;;;;;;;1.13;0.80;;;17.20;1.00;;;;;;8400250;28;20184;-73
2022/10/26 10:50:20;;;;;;;2.90;1.03;;;17.30;1.00;;;;;;8404306;28;20246;-72
2022/10/26 10:54:34;;;;;;;1.80;1.10;;;17.40;1.00;;;;;;8405235;28;20207;-73
2022/10/26 10:58:34;;;;;;;2.60;1.00;;;17.50;1.00;;;;;;8402020;28;20196;-70
2022/10/26 11:02:44;;;;;;;1.60;0.80;;;17.50;1.00;;;;;;8402780;28;20204;-72
2022/10/26 11:06:48;;;;;;;2.90;1.13;;;17.60;1.00;;;;;;8418287;28;20204;-71
2022/10/26 11:11:04;;;;;;;2.70;1.10;;;17.60;1.00;;;;;;8421089;28;20184;-70
2022/10/26 11:15:11;;;;;;;3.53;1.50;;;17.60;1.00;;;;;;8402983;28;20578;-70
2022/10/26 11:19:24;;;;;;;3.90;1.20;;;17.70;1.00;;;;;;8401880;28;20185;-72
2022/10/26 11:23:46;;;;;;;3.53;1.43;;;17.80;1.00;;;;;;8421684;28;20263;-69
2022/10/26 11:27:55;;;;;;;2.00;1.20;;;17.60;1.00;;;;;;8402791;28;20204;-71
2022/10/26 11:32:32;;;;;;;2.93;1.20;;;17.50;1.00;;;;;;8407469;28;20242;-69
2022/10/26 11:36:35;;;;;;;1.33;0.87;;;17.70;1.00;;;;;;8401624;28;20195;-71
2022/10/26 11:41:18;;;;;;;3.30;1.40;;;17.90;1.00;;;;;;8416846;28;20193;-70
2022/10/26 11:45:25;;;;;;;5.33;2.00;;;17.90;1.00;;;;;;8421603;28;20249;-71
2022/10/26 11:49:37;;;;;;;5.07;1.47;;;17.70;1.00;;;;;;8418137;28;20223;-70
2022/10/26 11:53:41;;;;;;;3.93;1.80;;;17.50;1.00;;;;;;8420809;28;20181;-71
2022/10/26 11:57:45;;;;;;;8.03;2.67;;;17.30;1.00;;;;;;8416735;28;20208;-71
2022/10/26 12:01:53;;;;;;;3.83;2.37;;;17.40;1.00;;;;;;8416468;28;20339;-71
2022/10/26 12:05:53;;;;;;;3.77;1.77;;;17.70;1.00;;;;;;8395210;28;20258;-71
2022/10/26 12:09:56;;;;;;;4.47;1.43;;;18.30;1.00;;;;;;8412113;28;20176;-71
2022/10/26 12:14:13;;;;;;;2.77;1.17;;;19.00;99.90;;;;;;8399927;28;20261;-71
2022/10/26 12:18:44;;;;;;;2.90;0.97;;;19.50;99.90;;;;;;8400050;28;20192;-72
2022/10/26 12:22:46;;;;;;;2.60;1.43;;;19.80;99.90;;;;;;8411917;28;20192;-72
2022/10/26 12:26:56;;;;;;;3.77;1.20;;;20.10;99.90;;;;;;8415357;28;20215;-72
2022/10/26 12:31:35;;;;;;;4.97;1.47;;;19.90;99.90;;;;;;8415186;28;20404;-73
2022/10/26 12:35:37;;;;;;;4.03;1.00;;;19.90;99.90;;;;;;8417363;28;20212;-72
2022/10/26 12:39:40;;;;;;;3.03;0.97;;;20.00;99.90;;;;;;8413792;28;20184;-71
2022/10/26 12:43:41;;;;;;;4.57;0.97;;;20.30;99.90;;;;;;8414518;28;20241;-72
2022/10/26 12:47:42;;;;;;;3.17;0.80;;;20.60;99.90;;;;;;8395744;28;20219;-71
2022/10/26 12:51:43;;;;;;;2.53;0.70;;;20.60;99.90;;;;;;8399154;28;21328;-72
2022/10/26 12:55:50;;;;;;;4.27;0.90;;;20.70;99.90;;;;;;8414603;28;20275;-72
2022/10/26 13:00:04;;;;;;;6.57;1.17;;;20.80;99.90;;;;;;8392853;28;20201;-71
2022/10/26 13:04:45;;;;;;;3.17;0.73;;;20.80;99.90;;;;;;8415898;28;20228;-71
2022/10/26 13:08:55;;;;;;;2.13;0.90;;;20.90;99.90;;;;;;8414086;28;20209;-72
2022/10/26 13:13:00;;;;;;;2.80;0.60;;;20.50;99.90;;;;;;8398444;28;20185;-71
2022/10/26 13:17:03;;;;;;;2.37;0.90;;;20.30;99.90;;;;;;8414195;28;20177;-72
2022/10/26 13:21:16;;;;;;;2.33;0.63;;;20.20;99.90;;;;;;8413749;28;20185;-72
2022/10/26 13:25:29;;;;;;;2.77;0.80;;;20.00;99.90;;;;;;8412309;28;20192;-72
2022/10/26 13:29:31;;;;;;;3.97;1.03;;;19.70;99.90;;;;;;8395226;28;20209;-72
2022/10/26 13:33:41;;;;;;;3.63;0.80;;;19.50;99.90;;;;;;8416980;28;20176;-71
2022/10/26 13:37:47;;;;;;;2.43;0.93;;;19.30;99.90;;;;;;8389648;28;20195;-70
2022/10/26 13:41:51;;;;;;;1.87;0.80;;;19.20;99.90;;;;;;8394898;28;20192;-71
2022/10/26 13:46:00;;;;;;;1.67;0.67;;;19.10;99.90;;;;;;8395273;28;20247;-69
2022/10/26 13:50:16;;;;;;;2.33;0.83;;;19.00;99.90;;;;;;8412566;28;20185;-71
2022/10/26 13:54:27;;;;;;;2.63;0.83;;;18.90;99.90;;;;;;8397267;28;20177;-70
2022/10/26 13:58:44;;;;;;;1.33;0.80;;;18.80;99.90;;;;;;8392125;28;20240;-70
2022/10/26 14:02:44;;;;;;;2.93;0.93;;;18.70;99.90;;;;;;8391981;28;20231;-70
2022/10/26 14:06:50;;;;;;;4.30;1.00;;;18.60;99.90;;;;;;8393159;28;20207;-71
2022/10/26 14:10:58;;;;;;;2.40;0.60;;;18.60;99.90;;;;;;8410728;28;20223;-69
2022/10/26 14:15:06;;;;;;;1.43;0.80;;;18.50;99.90;;;;;;8393879;28;20309;-71
2022/10/26 14:19:19;;;;;;;1.53;0.63;;;18.40;99.90;;;;;;8412399;28;20184;-71
2022/10/26 14:23:35;;;;;;;1.00;0.70;;;18.30;99.90;;;;;;8411243;28;20188;-70
2022/10/26 14:27:38;;;;;;;1.97;0.80;;;18.30;99.90;;;;;;8413366;28;20275;-70
2022/10/26 14:31:39;;;;;;;2.73;0.90;;;18.20;99.90;;;;;;8394095;28;20473;-69
2022/10/26 14:35:40;;;;;;;2.43;0.97;;;18.10;99.90;;;;;;8394585;28;20188;-70
2022/10/26 14:39:44;;;;;;;1.33;0.80;;;17.90;99.90;;;;;;8396370;28;20279;-71
2022/10/26 14:43:45;;;;;;;1.40;0.80;;;17.80;1.00;;;;;;8416284;28;20176;-71
2022/10/26 14:47:49;;;;;;;1.90;0.93;;;17.60;1.00;;;;;;8416469;28;20295;-68
2022/10/26 14:51:57;;;;;;;2.20;0.70;;;17.50;1.00;;;;;;8412011;28;20238;-69
2022/10/26 14:55:58;;;;;;;3.03;0.63;;;17.20;21.30;;;;;;8394271;28;20363;-70
2022/10/26 15:00:01;;;;;;;1.10;0.60;;;17.00;99.90;;;;;;8393685;28;20196;-70
2022/10/26 15:04:06;;;;;;;1.23;0.80;;;16.80;99.90;;;;;;8410295;28;20252;-69
2022/10/26 15:08:48;;;;;;;1.10;0.70;;;16.60;99.90;;;;;;8408859;28;20203;-70
2022/10/26 15:12:49;;;;;;;1.27;0.77;;;16.30;99.90;;;;;;8411568;28;20183;-69
2022/10/26 15:16:53;;;;;;;2.00;0.60;;;16.10;1.00;;;;;;8393566;28;20184;-70
2022/10/26 15:20:55;;;;;;;2.20;0.70;;;15.80;58.40;;;;;;8394967;28;20180;-70
2022/10/26 15:24:59;;;;;;;0.70;0.40;;;15.50;99.90;;;;;;8408879;28;20295;-71
2022/10/26 15:29:00;;;;;;;0.80;0.70;;;15.10;99.90;;;;;;8394495;28;20785;-70
2022/10/26 15:33:20;;;;;;;2.37;0.70;;;14.80;1.00;;;;;;8411858;28;20176;-70
2022/10/26 15:37:21;;;;;;;2.37;1.00;;;14.40;99.90;;;;;;8398483;28;20188;-69
2022/10/26 15:41:32;;;;;;;2.60;0.80;;;14.10;99.90;;;;;;8398540;28;20184;-70
2022/10/26 15:45:37;;;;;;;1.23;0.77;;;13.80;99.90;;;;;;8400953;28;20215;-70
2022/10/26 15:49:38;;;;;;;1.30;0.90;;;13.50;1.00;;;;;;8399315;28;20220;-70
2022/10/26 15:53:39;;;;;;;1.37;0.73;;;13.30;99.90;;;;;;8398198;28;20185;-70
2022/10/26 15:57:40;;;;;;;1.40;0.80;;;13.10;1.00;;;;;;8398064;28;20235;-70
2022/10/26 16:01:41;;;;;;;1.83;1.10;;;12.90;99.90;;;;;;8415349;28;20258;-70
2022/10/26 16:05:42;;;;;;;1.10;0.80;;;12.70;99.90;;;;;;8396658;28;20180;-70
2022/10/26 16:09:43;;;;;;;1.60;1.10;;;12.60;1.00;;;;;;8399120;28;20226;-69
2022/10/26 16:13:44;;;;;;;3.67;1.50;;;12.40;90.60;;;;;;8399826;28;20185;-70
2022/10/26 16:17:45;;;;;;;1.73;1.40;;;12.20;99.90;;;;;;8417829;28;20203;-69
2022/10/26 16:21:50;;;;;;;1.53;1.07;;;12.00;1.00;;;;;;8398648;28;20263;-69
2022/10/26 16:25:51;;;;;;;1.70;1.40;;;11.80;1.00;;;;;;8398554;28;20196;-71
2022/10/26 16:29:51;;;;;;;2.67;1.27;;;11.70;99.90;;;;;;8413839;28;20180;-69
2022/10/26 16:33:53;;;;;;;3.10;1.40;;;11.50;99.90;;;;;;8397331;28;20440;-69
2022/10/26 16:37:53;;;;;;;2.53;1.33;;;11.40;96.50;;;;;;8415110;28;20184;-69
2022/10/26 16:41:54;;;;;;;2.47;1.20;;;11.20;1.00;;;;;;8396564;28;20237;-69
2022/10/26 16:45:55;;;;;;;2.53;1.57;;;11.10;99.90;;;;;;8398528;28;20184;-69
2022/10/26 16:49:56;;;;;;;6.57;4.53;;;10.90;17.20;;;;;;8413883;28;20181;-69
2022/10/26 16:53:57;;;;;;;11.00;7.80;;;10.90;1.00;;;;;;8397514;28;20173;-69
2022/10/26 16:57:58;;;;;;;8.10;5.10;;;10.70;1.00;;;;;;8394411;28;20219;-69
2022/10/26 17:01:58;;;;;;;9.17;5.50;;;10.60;1.00;;;;;;8398420;28;20192;-69
2022/10/26 17:06:02;;;;;;;8.00;5.50;;;10.50;99.90;;;;;;8418314;28;20192;-69
2022/10/26 17:10:03;;;;;;;5.20;4.27;;;10.40;99.90;;;;;;8400242;28;20182;-69
2022/10/26 17:14:04;;;;;;;3.60;2.83;;;10.30;1.00;;;;;;8399594;28;20211;-68
2022/10/26 17:18:07;;;;;;;4.90;2.90;;;10.20;1.00;;;;;;8395605;28;20240;-69
2022/10/26 17:22:08;;;;;;;5.67;3.60;;;10.00;33.30;;;;;;8395456;28;20185;-70
2022/10/26 17:26:10;;;;;;;12.87;9.13;;;9.90;99.90;;;;;;8394103;28;20302;-69
2022/10/26 17:30:12;;;;;;;19.73;13.43;;;9.90;99.90;;;;;;8398434;28;20183;-70
2022/10/26 17:34:13;;;;;;;13.00;8.73;;;9.80;99.90;;;;;;8400511;28;20175;-70
2022/10/26 17:38:14;;;;;;;7.63;5.47;;;9.70;99.90;;;;;;8413161;28;20187;-70
2022/10/26 17:42:15;;;;;;;6.37;4.47;;;9.60;99.90;;;;;;8413903;28;20200;-70
2022/10/26 17:46:17;;;;;;;6.93;3.90;;;9.50;99.90;;;;;;8390798;28;20216;-69
2022/10/26 17:50:18;;;;;;;4.93;3.30;;;9.40;99.90;;;;;;8394219;28;20186;-69
2022/10/26 17:54:18;;;;;;;5.27;3.33;;;9.30;99.90;;;;;;8413209;28;20234;-69
2022/10/26 17:58:19;;;;;;;4.40;3.10;;;9.20;99.90;;;;;;8392779;28;20205;-69
2022/10/26 18:02:20;;;;;;;2.93;2.60;;;9.20;99.90;;;;;;8391865;28;20221;-69
2022/10/26 18:06:21;;;;;;;5.80;3.60;;;9.10;99.90;;;;;;8413637;28;20205;-71
2022/10/26 18:10:22;;;;;;;4.80;3.37;;;9.00;99.90;;;;;;8413555;28;20185;-69
2022/10/26 18:14:24;;;;;;;5.97;3.60;;;9.00;99.90;;;;;;8398926;28;20183;-69
2022/10/26 18:18:24;;;;;;;4.77;3.17;;;8.90;99.90;;;;;;8414614;28;20192;-67
2022/10/26 18:22:25;;;;;;;3.97;2.70;;;8.90;99.90;;;;;;8396090;28;20293;-69
2022/10/26 18:26:28;;;;;;;3.87;2.60;;;8.80;99.90;;;;;;8415686;28;20205;-69
2022/10/26 18:30:29;;;;;;;3.90;2.80;;;8.70;99.90;;;;;;8415058;28;20228;-69
2022/10/26 18:34:30;;;;;;;4.03;2.77;;;8.70;99.90;;;;;;8412997;28;20177;-68
2022/10/26 18:38:32;;;;;;;4.43;2.90;;;8.60;99.90;;;;;;8394026;28;20214;-69
2022/10/26 18:42:33;;;;;;;6.23;3.10;;;8.50;99.90;;;;;;8412215;28;20188;-69
2022/10/26 18:46:39;;;;;;;5.07;2.93;;;8.50;99.90;;;;;;8412390;28;20204;-70
2022/10/26 18:50:40;;;;;;;4.17;2.60;;;8.40;99.90;;;;;;8393264;28;20180;-69
2022/10/26 18:54:41;;;;;;;5.27;3.13;;;8.40;99.90;;;;;;8409365;28;20303;-70
2022/10/26 18:58:44;;;;;;;6.07;3.17;;;8.30;99.90;;;;;;8405652;28;20231;-68
2022/10/26 19:02:48;;;;;;;4.20;2.80;;;8.30;99.90;;;;;;8394013;28;20218;-68
2022/10/26 19:06:49;;;;;;;6.13;3.30;;;8.20;99.90;;;;;;8409950;28;20224;-68
2022/10/26 19:10:50;;;;;;;5.33;3.67;;;8.20;99.90;;;;;;8416454;28;20500;-68
2022/10/26 19:14:50;;;;;;;7.60;5.00;;;8.10;99.90;;;;;;8417642;28;20288;-68
2022/10/26 19:18:54;;;;;;;10.13;5.03;;;8.20;99.90;;;;;;8416518;28;20216;-68
2022/10/26 19:22:55;;;;;;;14.57;9.33;;;8.20;99.90;;;;;;8418994;28;20244;-69
2022/10/26 19:26:56;;;;;;;14.67;7.80;;;8.20;99.90;;;;;;8417017;28;20429;-68
2022/10/26 19:30:57;;;;;;;8.57;5.83;;;8.10;99.90;;;;;;8400365;28;20183;-69
2022/10/26 19:34:57;;;;;;;7.40;4.83;;;8.10;99.90;;;;;;8417146;28;20191;-68
2022/10/26 19:38:58;;;;;;;7.50;3.60;;;8.10;99.90;;;;;;8416212;28;20182;-68
2022/10/26 19:42:59;;;;;;;6.87;4.07;;;7.90;99.90;;;;;;8416999;28;20181;-69
2022/10/26 19:47:00;;;;;;;7.33;4.67;;;7.90;99.90;;;;;;8398986;28;20295;-71
2022/10/26 19:51:02;;;;;;;9.23;5.43;;;7.90;99.90;;;;;;8417376;28;20173;-69
2022/10/26 19:55:03;;;;;;;8.47;5.57;;;8.00;99.90;;;;;;8398208;28;20246;-69
2022/10/26 19:59:05;;;;;;;6.70;5.50;;;8.10;99.90;;;;;;8396019;28;20338;-69
2022/10/26 20:03:09;;;;;;;9.00;5.63;;;8.10;99.90;;;;;;8396132;28;20200;-69
2022/10/26 20:07:10;;;;;;;10.80;6.10;;;8.20;99.90;;;;;;8415351;28;20196;-69
2022/10/26 20:11:12;;;;;;;12.13;6.77;;;8.30;99.90;;;;;;8417553;28;20183;-70
2022/10/26 20:15:13;;;;;;;19.93;11.30;;;8.30;99.90;;;;;;8399793;28;20182;-70
2022/10/26 20:19:14;;;;;;;19.70;11.70;;;8.40;99.90;;;;;;8396969;28;20180;-69
2022/10/26 20:23:14;;;;;;;17.23;8.97;;;8.40;99.90;;;;;;8396629;28;20192;-69
2022/10/26 20:27:15;;;;;;;8.90;6.73;;;8.40;99.90;;;;;;8415049;28;20185;-69
2022/10/26 20:31:16;;;;;;;8.70;6.43;;;8.40;99.90;;;;;;8391410;28;20254;-69
2022/10/26 20:35:17;;;;;;;7.80;6.47;;;8.50;99.90;;;;;;8413900;28;20280;-69
2022/10/26 20:39:18;;;;;;;10.57;6.73;;;8.50;99.90;;;;;;8396581;28;20594;-69
2022/10/26 20:43:19;;;;;;;8.53;5.97;;;8.50;99.90;;;;;;8395037;28;20256;-69
2022/10/26 20:47:20;;;;;;;10.00;6.90;;;8.60;99.90;;;;;;8397171;28;20295;-69
2022/10/26 20:51:47;;;;;;;10.73;7.70;;;8.60;99.90;;;;;;8398582;28;20238;-69
2022/10/26 20:55:59;;;;;;;14.10;9.13;;;8.70;99.90;;;;;;8416101;28;20272;-70
2022/10/26 21:00:10;;;;;;;16.97;11.30;;;8.70;99.90;;;;;;8413088;28;20194;-69
2022/10/26 21:04:11;;;;;;;14.50;7.87;;;8.80;99.90;;;;;;8398263;28;20204;-69
2022/10/26 21:08:12;;;;;;;14.90;7.50;;;8.90;99.90;;;;;;8416966;28;20205;-69
2022/10/26 21:12:12;;;;;;;12.57;8.17;;;9.10;99.90;;;;;;8415352;28;20352;-69
2022/10/26 21:16:14;;;;;;;9.67;7.93;;;9.70;99.90;;;;;;8397298;28;20185;-70
2022/10/26 21:20:15;;;;;;;13.37;8.97;;;10.10;99.90;;;;;;8418179;28;20185;-70